Terminal Aerodrome Forecast
Issued by NWS

Home | Current Version | Previous Version | Text Only | Print | Product List | Glossary On
Versions: 1 2 3 4 5 6 7 8 9 10 11 12 13 14 15 16 17
000
FTUS44 KCRP 271252 AAA
TAFALI
TAF AMD
KALI 271252Z 2713/2812 18008KT 6SM BR BKN010 OVC020
      TEMPO 2713/2714 4SM BR BKN008 OVC015
     FM271400 17010KT P6SM BKN018 BKN040
     FM271900 16012KT P6SM SCT030 SCT050
     FM280400 14011KT P6SM BKN015
     FM280800 16008KT 5SM BR OVC008=

USA.gov is the U.S. government's official web portal to all federal, state and local government web resources and services.